Time;durP1;ratioP1;P1;durP2;ratioP2;P2;SDS_P1;SDS_P2;PMS_P1;PMS_P2;Temp;Humidity;BMP_temperature;BMP_pressure;BME280_temperature;BME280_humidity;BME280_pressure;Samples;Min_cycle;Max_cycle;Signal;HPM_P1;HPM_P2
2021/04/06 00:00:05;;;;;;;22.67;8.75;;;;;;;;;;5050442;28;20044;-64
2021/04/06 00:02:31;;;;;;;19.65;7.57;;;;;;;;;;5041741;28;20021;-65
2021/04/06 00:04:57;;;;;;;22.88;8.00;;;;;;;;;;5041106;28;20039;-65
2021/04/06 00:07:23;;;;;;;23.23;7.30;;;;;;;;;;5049927;28;20029;-65
2021/04/06 00:09:53;;;;;;;40.80;9.25;;;;;;;;;;5036634;28;20028;-65
2021/04/06 00:12:19;;;;;;;31.83;8.05;;;;;;;;;;5041839;28;20017;-66
2021/04/06 00:14:45;;;;;;;22.63;7.28;;;;;;;;;;5038389;28;20512;-66
2021/04/06 00:17:11;;;;;;;25.20;5.15;;;;;;;;;;5043227;28;20025;-64
2021/04/06 00:19:39;;;;;;;28.85;8.68;;;;;;;;;;5050953;28;20029;-65
2021/04/06 00:22:05;;;;;;;16.20;5.03;;;;;;;;;;5039036;28;20033;-66
2021/04/06 00:24:31;;;;;;;26.20;6.22;;;;;;;;;;5037090;28;20044;-66
2021/04/06 00:27:06;;;;;;;16.85;5.55;;;;;;;;;;5041200;28;20043;-65
2021/04/06 00:29:33;;;;;;;21.48;4.95;;;;;;;;;;5046869;28;20029;-66
2021/04/06 00:31:59;;;;;;;24.30;5.20;;;;;;;;;;5042258;28;20053;-65
2021/04/06 00:34:25;;;;;;;25.27;6.32;;;;;;;;;;5035480;28;20058;-65
2021/04/06 00:36:51;;;;;;;14.68;4.53;;;;;;;;;;5039692;28;20185;-66
2021/04/06 00:39:25;;;;;;;17.08;4.35;;;;;;;;;;5046397;28;20079;-64
2021/04/06 00:41:50;;;;;;;28.05;5.72;;;;;;;;;;5049623;28;20381;-64
2021/04/06 00:44:16;;;;;;;34.22;6.55;;;;;;;;;;5032429;28;20024;-68
2021/04/06 00:46:44;;;;;;;32.47;6.97;;;;;;;;;;5043806;28;20033;-69
2021/04/06 00:49:11;;;;;;;17.52;4.80;;;;;;;;;;5035669;28;20010;-64
2021/04/06 00:51:40;;;;;;;14.02;4.90;;;;;;;;;;5049810;28;20029;-68
2021/04/06 00:54:06;;;;;;;18.90;5.20;;;;;;;;;;5046782;28;20028;-65
2021/04/06 00:56:36;;;;;;;26.35;4.80;;;;;;;;;;5060618;28;20139;-66
2021/04/06 00:59:03;;;;;;;20.60;3.83;;;;;;;;;;5048463;28;20029;-68
2021/04/06 01:01:33;;;;;;;20.58;4.32;;;;;;;;;;5036076;28;20522;-68
2021/04/06 01:03:58;;;;;;;26.90;5.33;;;;;;;;;;5031438;28;20033;-66
2021/04/06 01:06:24;;;;;;;20.90;5.88;;;;;;;;;;5046521;28;20024;-66
2021/04/06 01:08:51;;;;;;;20.38;5.00;;;;;;;;;;5041528;28;20029;-67
2021/04/06 01:11:16;;;;;;;19.17;4.90;;;;;;;;;;5023045;28;20026;-67
2021/04/06 01:13:41;;;;;;;21.63;4.63;;;;;;;;;;5044429;28;20032;-64
2021/04/06 01:16:07;;;;;;;20.52;4.53;;;;;;;;;;5049603;28;20078;-68
2021/04/06 01:18:33;;;;;;;25.88;5.80;;;;;;;;;;5037437;28;20381;-64
2021/04/06 01:20:59;;;;;;;26.77;4.70;;;;;;;;;;5046464;28;20479;-67
2021/04/06 01:23:24;;;;;;;30.38;3.97;;;;;;;;;;5050558;28;20071;-63
2021/04/06 01:25:55;;;;;;;15.43;3.97;;;;;;;;;;5042808;28;20465;-64
2021/04/06 01:28:21;;;;;;;31.75;6.07;;;;;;;;;;5039786;28;20013;-69
2021/04/06 01:30:50;;;;;;;24.70;6.10;;;;;;;;;;5034762;28;20023;-67
2021/04/06 01:33:22;;;;;;;17.95;4.00;;;;;;;;;;5050552;28;20021;-68
2021/04/06 01:35:48;;;;;;;25.65;4.65;;;;;;;;;;5038606;28;20082;-68
2021/04/06 01:38:14;;;;;;;15.55;4.13;;;;;;;;;;5045673;28;20025;-65
2021/04/06 01:40:40;;;;;;;22.90;3.45;;;;;;;;;;5036953;28;20056;-65
2021/04/06 01:43:07;;;;;;;13.98;3.13;;;;;;;;;;5016600;28;20033;-66
2021/04/06 01:45:34;;;;;;;20.42;4.22;;;;;;;;;;5030907;28;20538;-65
2021/04/06 01:47:59;;;;;;;21.35;3.45;;;;;;;;;;5033957;28;20473;-65
2021/04/06 01:50:25;;;;;;;21.00;4.03;;;;;;;;;;5041984;28;20029;-65
2021/04/06 01:52:52;;;;;;;23.95;5.20;;;;;;;;;;5034367;28;20111;-65
2021/04/06 01:55:28;;;;;;;17.35;3.78;;;;;;;;;;5048160;28;20070;-64
2021/04/06 01:57:54;;;;;;;26.40;4.75;;;;;;;;;;5035167;28;20068;-68
2021/04/06 02:02:51;;;;;;;20.13;4.07;;;;;;;;;;5047920;28;20171;-65
2021/04/06 02:05:17;;;;;;;18.17;4.70;;;;;;;;;;5039340;28;20100;-69
2021/04/06 02:07:44;;;;;;;20.02;3.88;;;;;;;;;;5039847;28;20013;-65
2021/04/06 02:10:10;;;;;;;32.88;6.28;;;;;;;;;;5035694;28;20098;-65
2021/04/06 02:12:39;;;;;;;22.33;5.15;;;;;;;;;;5045024;28;20587;-65
2021/04/06 02:15:07;;;;;;;21.27;3.88;;;;;;;;;;5038545;28;20095;-64
2021/04/06 02:17:32;;;;;;;21.88;4.38;;;;;;;;;;5034235;28;20025;-68
2021/04/06 02:19:58;;;;;;;30.25;4.80;;;;;;;;;;5035702;28;20465;-65
2021/04/06 02:22:23;;;;;;;17.75;3.30;;;;;;;;;;5044974;28;20025;-66
2021/04/06 02:24:49;;;;;;;25.45;4.10;;;;;;;;;;5035047;28;20043;-65
2021/04/06 02:27:22;;;;;;;28.48;3.47;;;;;;;;;;5042264;28;20025;-65
2021/04/06 02:29:49;;;;;;;29.52;4.57;;;;;;;;;;5044178;28;20021;-68
2021/04/06 02:32:15;;;;;;;29.23;4.60;;;;;;;;;;5052073;28;20024;-65
2021/04/06 02:34:42;;;;;;;17.63;3.92;;;;;;;;;;5042272;28;20450;-68
2021/04/06 02:37:17;;;;;;;17.20;3.90;;;;;;;;;;5037827;28;20437;-68
2021/04/06 02:39:43;;;;;;;31.95;5.47;;;;;;;;;;5045475;28;20029;-65
2021/04/06 02:42:25;;;;;;;18.88;3.35;;;;;;;;;;5044260;28;20078;-64
2021/04/06 02:44:54;;;;;;;25.75;5.53;;;;;;;;;;5049179;28;20381;-65
2021/04/06 02:47:19;;;;;;;27.08;4.95;;;;;;;;;;5052416;28;20053;-65
2021/04/06 02:49:44;;;;;;;27.55;4.20;;;;;;;;;;5040989;28;20045;-65
2021/04/06 02:52:09;;;;;;;14.40;3.35;;;;;;;;;;5033941;28;20034;-68
2021/04/06 02:54:35;;;;;;;22.15;3.15;;;;;;;;;;5045278;28;21892;-65
2021/04/06 02:57:16;;;;;;;32.35;4.30;;;;;;;;;;5041785;28;20521;-65
2021/04/06 02:59:41;;;;;;;17.60;3.15;;;;;;;;;;5047203;28;20049;-65
2021/04/06 03:02:06;;;;;;;21.88;2.28;;;;;;;;;;5036172;28;20513;-65
2021/04/06 03:04:31;;;;;;;23.27;5.43;;;;;;;;;;5050415;28;20036;-65
2021/04/06 03:06:57;;;;;;;23.42;2.63;;;;;;;;;;5041537;28;20074;-65
2021/04/06 03:09:23;;;;;;;23.67;3.88;;;;;;;;;;5033482;28;20374;-66
2021/04/06 03:11:53;;;;;;;17.30;2.60;;;;;;;;;;5047354;28;20032;-64
2021/04/06 03:14:19;;;;;;;23.73;3.53;;;;;;;;;;5052608;28;20067;-65
2021/04/06 03:16:47;;;;;;;23.05;3.67;;;;;;;;;;5048341;28;20415;-67
2021/04/06 03:19:12;;;;;;;16.33;3.08;;;;;;;;;;5045713;28;20037;-72
2021/04/06 03:21:38;;;;;;;24.85;2.70;;;;;;;;;;5038176;28;20463;-64
2021/04/06 03:24:03;;;;;;;26.38;3.42;;;;;;;;;;5047081;28;20469;-66
2021/04/06 03:26:30;;;;;;;34.30;4.05;;;;;;;;;;5022988;28;20104;-67
2021/04/06 03:28:59;;;;;;;21.08;3.60;;;;;;;;;;5037193;28;20018;-69
2021/04/06 03:31:26;;;;;;;19.73;3.33;;;;;;;;;;5036590;28;20473;-64
2021/04/06 03:33:51;;;;;;;17.65;3.15;;;;;;;;;;5042504;28;20040;-66
2021/04/06 03:36:20;;;;;;;22.70;3.65;;;;;;;;;;5037145;28;20032;-65
2021/04/06 03:38:47;;;;;;;16.67;2.95;;;;;;;;;;5040804;28;20021;-65
2021/04/06 03:41:12;;;;;;;18.90;3.33;;;;;;;;;;5042873;28;20038;-66
2021/04/06 03:43:38;;;;;;;20.85;4.72;;;;;;;;;;5041656;28;20024;-65
2021/04/06 03:46:03;;;;;;;28.67;3.53;;;;;;;;;;5051749;28;20024;-65
2021/04/06 03:48:29;;;;;;;30.77;3.30;;;;;;;;;;5043566;28;20022;-66
2021/04/06 03:50:55;;;;;;;23.42;3.33;;;;;;;;;;5048895;28;20108;-65
2021/04/06 03:53:21;;;;;;;21.40;3.33;;;;;;;;;;5038427;28;20029;-65
2021/04/06 03:56:03;;;;;;;14.02;2.80;;;;;;;;;;5047261;28;20052;-65
2021/04/06 03:58:32;;;;;;;19.35;2.70;;;;;;;;;;5040739;28;20115;-66
2021/04/06 04:00:57;;;;;;;25.98;3.20;;;;;;;;;;5048229;28;20108;-65
2021/04/06 04:03:23;;;;;;;24.83;3.88;;;;;;;;;;5040820;28;20106;-65
2021/04/06 04:05:49;;;;;;;25.85;3.65;;;;;;;;;;5046760;28;20033;-65
2021/04/06 04:08:14;;;;;;;22.02;3.80;;;;;;;;;;5034029;28;20025;-65
2021/04/06 04:10:39;;;;;;;25.65;4.10;;;;;;;;;;5036349;28;20548;-65
2021/04/06 04:13:04;;;;;;;27.75;4.85;;;;;;;;;;5048658;28;20112;-66
2021/04/06 04:15:30;;;;;;;22.73;4.65;;;;;;;;;;5033766;28;20023;-64
2021/04/06 04:17:55;;;;;;;29.70;4.80;;;;;;;;;;5049286;28;20103;-66
2021/04/06 04:20:21;;;;;;;31.63;7.68;;;;;;;;;;5032595;28;20021;-66
2021/04/06 04:22:46;;;;;;;26.70;7.40;;;;;;;;;;5045659;28;20028;-65
2021/04/06 04:25:13;;;;;;;34.40;7.18;;;;;;;;;;5041684;28;20494;-65
2021/04/06 04:27:39;;;;;;;30.13;7.45;;;;;;;;;;5038384;28;20013;-66
2021/04/06 04:30:05;;;;;;;30.02;6.45;;;;;;;;;;5036952;28;20082;-65
2021/04/06 04:32:30;;;;;;;26.80;5.47;;;;;;;;;;5041210;28;20032;-66
2021/04/06 04:34:55;;;;;;;30.73;6.30;;;;;;;;;;5045831;28;20047;-65
2021/04/06 04:37:20;;;;;;;31.15;6.72;;;;;;;;;;5039117;28;20029;-66
2021/04/06 04:39:45;;;;;;;20.02;5.90;;;;;;;;;;5046742;28;20036;-66
2021/04/06 04:42:10;;;;;;;21.63;6.10;;;;;;;;;;5039976;28;20040;-66
2021/04/06 04:44:36;;;;;;;30.83;6.60;;;;;;;;;;5041714;28;20421;-65
2021/04/06 04:47:01;;;;;;;31.17;5.47;;;;;;;;;;5042988;28;20460;-65
2021/04/06 04:49:26;;;;;;;24.75;6.00;;;;;;;;;;5047669;28;20017;-65
2021/04/06 04:51:52;;;;;;;29.98;7.85;;;;;;;;;;5038298;28;20037;-65
2021/04/06 04:54:17;;;;;;;23.27;5.00;;;;;;;;;;5042040;28;20048;-65
2021/04/06 04:56:42;;;;;;;37.65;10.00;;;;;;;;;;5031862;28;20029;-65
2021/04/06 04:59:07;;;;;;;26.75;6.28;;;;;;;;;;5044159;28;20469;-64
2021/04/06 05:01:33;;;;;;;24.35;7.50;;;;;;;;;;5018540;28;545017;-65
2021/04/06 05:03:58;;;;;;;24.42;6.53;;;;;;;;;;5037187;28;20074;-66
2021/04/06 05:06:24;;;;;;;19.83;5.85;;;;;;;;;;5036402;28;20056;-65
2021/04/06 05:08:49;;;;;;;22.25;5.75;;;;;;;;;;5032901;28;20021;-66
2021/04/06 05:11:14;;;;;;;22.45;6.80;;;;;;;;;;5048622;28;20546;-65
2021/04/06 05:13:39;;;;;;;24.75;5.63;;;;;;;;;;5042909;28;20091;-65
2021/04/06 05:16:04;;;;;;;27.45;5.22;;;;;;;;;;5032767;28;20036;-66
2021/04/06 05:18:30;;;;;;;27.15;4.80;;;;;;;;;;5031704;28;20108;-65
2021/04/06 05:20:55;;;;;;;16.52;4.00;;;;;;;;;;5035962;28;20031;-66
2021/04/06 05:23:20;;;;;;;17.08;4.72;;;;;;;;;;5040804;28;20029;-65
2021/04/06 05:25:46;;;;;;;26.42;5.63;;;;;;;;;;5040789;28;20389;-66
2021/04/06 05:28:12;;;;;;;22.88;5.32;;;;;;;;;;5031359;28;20039;-65
2021/04/06 05:30:37;;;;;;;30.52;5.05;;;;;;;;;;5030996;28;20018;-65
2021/04/06 05:33:02;;;;;;;35.33;7.10;;;;;;;;;;5038039;28;20036;-65
2021/04/06 05:35:28;;;;;;;22.52;3.97;;;;;;;;;;5037039;28;20458;-65
2021/04/06 05:37:53;;;;;;;31.10;4.05;;;;;;;;;;5044151;28;20466;-66
2021/04/06 05:40:18;;;;;;;27.23;5.18;;;;;;;;;;5038778;28;20038;-65
2021/04/06 05:42:43;;;;;;;19.83;3.65;;;;;;;;;;5038762;28;20040;-66
2021/04/06 05:45:09;;;;;;;22.08;3.88;;;;;;;;;;5046329;28;20033;-66
2021/04/06 05:47:43;;;;;;;27.48;5.00;;;;;;;;;;5047451;28;20039;-65
2021/04/06 05:50:09;;;;;;;17.00;3.35;;;;;;;;;;5036095;28;20029;-66
2021/04/06 05:52:34;;;;;;;21.38;2.80;;;;;;;;;;5035246;28;20029;-65
2021/04/06 05:55:00;;;;;;;17.77;3.35;;;;;;;;;;5042945;28;20382;-65
2021/04/06 05:57:25;;;;;;;22.30;3.00;;;;;;;;;;5041450;28;20424;-65
2021/04/06 05:59:51;;;;;;;18.38;3.58;;;;;;;;;;5034785;28;20187;-66
2021/04/06 06:02:16;;;;;;;23.77;3.47;;;;;;;;;;5034905;28;20025;-65
2021/04/06 06:04:41;;;;;;;19.85;3.42;;;;;;;;;;5046011;28;20032;-65
2021/04/06 06:07:07;;;;;;;9.98;2.80;;;;;;;;;;5043871;28;20032;-66
2021/04/06 06:09:33;;;;;;;30.83;3.65;;;;;;;;;;5030180;28;20377;-65
2021/04/06 06:11:59;;;;;;;17.63;3.35;;;;;;;;;;5044549;28;20047;-65
2021/04/06 06:14:25;;;;;;;24.45;6.00;;;;;;;;;;5048212;28;20104;-65
2021/04/06 06:16:51;;;;;;;28.42;5.00;;;;;;;;;;5049218;28;20025;-66
2021/04/06 06:19:16;;;;;;;28.85;5.35;;;;;;;;;;5047320;28;20047;-66
2021/04/06 06:21:43;;;;;;;14.88;3.90;;;;;;;;;;5040214;28;20055;-66
2021/04/06 06:24:09;;;;;;;19.45;3.00;;;;;;;;;;5035102;28;20017;-66
2021/04/06 06:26:34;;;;;;;17.65;3.13;;;;;;;;;;5030273;28;20023;-66
2021/04/06 06:29:07;;;;;;;24.77;4.65;;;;;;;;;;5044107;28;20021;-65
2021/04/06 06:31:43;;;;;;;18.85;4.85;;;;;;;;;;5048765;28;20025;-66
2021/04/06 06:34:29;;;;;;;19.42;3.20;;;;;;;;;;5036910;28;20079;-66
2021/04/06 06:37:01;;;;;;;16.70;3.33;;;;;;;;;;5054364;28;20079;-66
2021/04/06 06:39:26;;;;;;;32.80;4.43;;;;;;;;;;5047658;28;20070;-66
2021/04/06 06:42:06;;;;;;;17.50;3.45;;;;;;;;;;5042937;28;20036;-66
2021/04/06 06:44:32;;;;;;;11.57;3.38;;;;;;;;;;5045365;28;20025;-65
2021/04/06 06:47:03;;;;;;;19.15;3.17;;;;;;;;;;5039845;28;20562;-66
2021/04/06 06:49:34;;;;;;;13.90;2.85;;;;;;;;;;5040483;28;20025;-66
2021/04/06 06:51:59;;;;;;;23.05;3.05;;;;;;;;;;5043429;28;20492;-66
2021/04/06 06:54:38;;;;;;;28.48;3.78;;;;;;;;;;5050491;28;20029;-66
2021/04/06 06:57:07;;;;;;;23.08;4.28;;;;;;;;;;5039687;28;20521;-66
2021/04/06 06:59:36;;;;;;;14.90;3.97;;;;;;;;;;5044161;28;20456;-65
2021/04/06 07:02:19;;;;;;;11.60;3.72;;;;;;;;;;5042674;28;20461;-65
2021/04/06 07:04:44;;;;;;;9.43;3.33;;;;;;;;;;5048562;28;20017;-66
2021/04/06 07:07:10;;;;;;;18.42;3.67;;;;;;;;;;5044493;28;20457;-65
2021/04/06 07:09:36;;;;;;;19.65;3.67;;;;;;;;;;5040455;28;20519;-66
2021/04/06 07:12:03;;;;;;;16.20;4.00;;;;;;;;;;5045189;28;20059;-65
2021/04/06 07:14:28;;;;;;;23.83;4.80;;;;;;;;;;5046719;28;20036;-65
2021/04/06 07:16:54;;;;;;;15.45;4.13;;;;;;;;;;5044995;28;20114;-66
2021/04/06 07:19:20;;;;;;;19.17;4.25;;;;;;;;;;5048303;28;20052;-66
2021/04/06 07:21:46;;;;;;;16.92;5.25;;;;;;;;;;5042254;28;20068;-66
2021/04/06 07:24:13;;;;;;;25.80;5.70;;;;;;;;;;5035640;28;20037;-65
2021/04/06 07:26:39;;;;;;;24.35;5.68;;;;;;;;;;5047689;28;20104;-65
2021/04/06 07:29:05;;;;;;;23.83;5.07;;;;;;;;;;5052686;28;20099;-66
2021/04/06 07:31:31;;;;;;;14.95;5.00;;;;;;;;;;5049245;28;20469;-65
2021/04/06 07:33:57;;;;;;;15.45;3.60;;;;;;;;;;5052558;28;20179;-66
2021/04/06 07:36:23;;;;;;;17.55;4.05;;;;;;;;;;5038376;28;20481;-65
2021/04/06 07:38:50;;;;;;;20.95;4.32;;;;;;;;;;5045816;28;20033;-65
2021/04/06 07:41:20;;;;;;;17.48;4.70;;;;;;;;;;5047135;28;20024;-64
2021/04/06 07:43:46;;;;;;;16.05;4.15;;;;;;;;;;5043089;28;20312;-63
2021/04/06 07:46:31;;;;;;;21.85;3.80;;;;;;;;;;5050368;28;20032;-63
2021/04/06 07:48:56;;;;;;;18.50;4.03;;;;;;;;;;5032646;28;20017;-64
2021/04/06 07:51:24;;;;;;;24.30;4.82;;;;;;;;;;5047199;28;20488;-64
2021/04/06 07:53:58;;;;;;;16.08;3.85;;;;;;;;;;5044698;28;20076;-63
2021/04/06 07:56:42;;;;;;;23.25;4.43;;;;;;;;;;5032530;28;20468;-64
2021/04/06 07:59:08;;;;;;;26.63;7.22;;;;;;;;;;5034432;28;20121;-64
2021/04/06 08:01:33;;;;;;;24.77;5.13;;;;;;;;;;5061883;22;20036;-67
2021/04/06 08:04:00;;;;;;;17.40;4.35;;;;;;;;;;5034181;28;20037;-68
2021/04/06 08:06:27;;;;;;;16.65;4.72;;;;;;;;;;5017456;28;20075;-67
2021/04/06 08:08:52;;;;;;;15.95;5.25;;;;;;;;;;5028612;28;20033;-67
2021/04/06 08:11:18;;;;;;;25.73;4.40;;;;;;;;;;5019025;28;20088;-67
2021/04/06 08:13:44;;;;;;;28.73;3.83;;;;;;;;;;5028086;28;20044;-66
2021/04/06 08:16:10;;;;;;;12.93;3.05;;;;;;;;;;5031302;28;20112;-66
2021/04/06 08:18:46;;;;;;;22.88;3.80;;;;;;;;;;5031591;28;20466;-66
2021/04/06 08:21:11;;;;;;;16.65;3.20;;;;;;;;;;5030830;28;20021;-67
2021/04/06 08:23:37;;;;;;;32.65;3.88;;;;;;;;;;5030972;28;20033;-67
2021/04/06 08:26:02;;;;;;;13.30;3.22;;;;;;;;;;5032016;28;20079;-68
2021/04/06 08:28:29;;;;;;;16.83;4.13;;;;;;;;;;5029957;28;20030;-67
2021/04/06 08:31:13;;;;;;;18.73;4.15;;;;;;;;;;5027332;28;20025;-67
2021/04/06 08:33:38;;;;;;;21.92;3.90;;;;;;;;;;5026866;28;20100;-67
2021/04/06 08:36:04;;;;;;;19.65;4.05;;;;;;;;;;5031342;28;20498;-67
2021/04/06 08:38:32;;;;;;;12.75;2.80;;;;;;;;;;5030253;28;20055;-67
2021/04/06 08:40:57;;;;;;;27.33;3.25;;;;;;;;;;5030232;28;20393;-67
2021/04/06 08:43:33;;;;;;;12.90;3.10;;;;;;;;;;5030661;28;20033;-67
2021/04/06 08:46:05;;;;;;;14.98;3.47;;;;;;;;;;5030604;28;20270;-67
2021/04/06 08:51:20;;;;;;;17.60;2.47;;;;;;;;;;5030373;28;20112;-65
2021/04/06 08:53:49;;;;;;;15.38;2.45;;;;;;;;;;5031339;28;20061;-66
2021/04/06 08:56:15;;;;;;;16.23;4.38;;;;;;;;;;5029606;28;20029;-66
2021/04/06 08:58:40;;;;;;;15.75;3.33;;;;;;;;;;5030940;28;20083;-66
2021/04/06 09:01:05;;;;;;;13.23;2.40;;;;;;;;;;5029261;28;20029;-66
2021/04/06 09:03:31;;;;;;;17.48;3.05;;;;;;;;;;5026503;28;20346;-67
2021/04/06 09:06:10;;;;;;;13.05;3.63;;;;;;;;;;5031101;28;20037;-70
2021/04/06 09:08:48;;;;;;;16.50;3.47;;;;;;;;;;5030415;28;20025;-68
2021/04/06 09:11:14;;;;;;;20.38;3.15;;;;;;;;;;5030155;28;20108;-68
2021/04/06 09:13:40;;;;;;;11.48;2.50;;;;;;;;;;5025610;28;20057;-68
2021/04/06 09:16:05;;;;;;;13.70;3.10;;;;;;;;;;5028593;28;20099;-69
2021/04/06 09:18:35;;;;;;;13.90;2.83;;;;;;;;;;5041184;28;20028;-67
2021/04/06 09:21:00;;;;;;;17.08;4.10;;;;;;;;;;5028735;28;20036;-67
2021/04/06 09:23:28;;;;;;;16.13;2.53;;;;;;;;;;5027134;28;20017;-70
2021/04/06 09:25:54;;;;;;;15.85;4.18;;;;;;;;;;5028704;28;20053;-68
2021/04/06 09:28:19;;;;;;;4.18;1.77;;;;;;;;;;5027466;28;20110;-68
2021/04/06 09:30:44;;;;;;;10.63;3.50;;;;;;;;;;5029386;28;20017;-68
2021/04/06 09:33:14;;;;;;;9.50;2.15;;;;;;;;;;5026919;28;20442;-66
2021/04/06 09:35:39;;;;;;;35.03;3.47;;;;;;;;;;5033678;28;20017;-67
2021/04/06 09:38:05;;;;;;;18.77;4.72;;;;;;;;;;5026204;28;20067;-66
2021/04/06 09:40:35;;;;;;;16.17;3.10;;;;;;;;;;5024674;28;20075;-66
2021/04/06 09:43:00;;;;;;;12.90;2.33;;;;;;;;;;5033331;28;20029;-67
2021/04/06 09:45:26;;;;;;;5.75;2.03;;;;;;;;;;5016627;28;20053;-66
2021/04/06 09:47:52;;;;;;;8.23;2.53;;;;;;;;;;5023723;28;20025;-66
2021/04/06 09:50:19;;;;;;;3.88;1.17;;;;;;;;;;5020384;28;20068;-67
2021/04/06 09:52:44;;;;;;;20.38;5.13;;;;;;;;;;5028610;28;20108;-67
2021/04/06 09:55:10;;;;;;;10.70;3.22;;;;;;;;;;5025124;28;20117;-67
2021/04/06 09:57:37;;;;;;;11.45;2.70;;;;;;;;;;5029391;28;20124;-67
2021/04/06 10:00:05;;;;;;;13.65;3.25;;;;;;;;;;5030060;28;20036;-67
2021/04/06 10:02:30;;;;;;;11.82;3.60;;;;;;;;;;5029350;28;20049;-67
2021/04/06 10:04:56;;;;;;;10.68;2.50;;;;;;;;;;5021145;28;20072;-67
2021/04/06 10:07:23;;;;;;;12.07;3.10;;;;;;;;;;5030355;28;20413;-66
2021/04/06 10:09:52;;;;;;;8.55;2.97;;;;;;;;;;5027933;28;20101;-66
2021/04/06 10:12:19;;;;;;;11.07;2.85;;;;;;;;;;5027933;28;20498;-66
2021/04/06 10:14:45;;;;;;;12.23;2.63;;;;;;;;;;5028438;28;20029;-66
2021/04/06 10:17:17;;;;;;;11.80;2.90;;;;;;;;;;5028064;28;20382;-66
2021/04/06 10:19:45;;;;;;;11.57;2.25;;;;;;;;;;5028648;28;20029;-67
2021/04/06 10:22:15;;;;;;;13.48;2.42;;;;;;;;;;5027622;28;20074;-67
2021/04/06 10:24:42;;;;;;;12.30;2.40;;;;;;;;;;5025744;28;20021;-67
2021/04/06 10:27:10;;;;;;;18.27;2.70;;;;;;;;;;5029270;28;20308;-67
2021/04/06 10:29:36;;;;;;;14.18;3.88;;;;;;;;;;5032058;28;20075;-67
2021/04/06 10:32:02;;;;;;;9.32;2.67;;;;;;;;;;5026252;28;20112;-68
2021/04/06 10:34:28;;;;;;;14.55;2.92;;;;;;;;;;5033578;28;20024;-67
2021/04/06 10:36:58;;;;;;;14.60;3.55;;;;;;;;;;5031447;28;20033;-68
2021/04/06 10:39:50;;;;;;;7.82;2.63;;;;;;;;;;5031932;28;20543;-68
2021/04/06 10:42:16;;;;;;;15.68;2.28;;;;;;;;;;5027727;28;20029;-68
2021/04/06 10:44:42;;;;;;;7.22;2.63;;;;;;;;;;5032109;28;20492;-67
2021/04/06 10:47:08;;;;;;;13.90;2.78;;;;;;;;;;5028030;28;20075;-67
2021/04/06 10:49:34;;;;;;;13.43;3.85;;;;;;;;;;5031741;28;20108;-67
2021/04/06 10:52:01;;;;;;;7.30;3.65;;;;;;;;;;5032002;28;20045;-68
2021/04/06 10:54:26;;;;;;;9.45;3.70;;;;;;;;;;5033247;28;20555;-68
2021/04/06 10:56:54;;;;;;;10.38;3.13;;;;;;;;;;5029571;28;20030;-68
2021/04/06 10:59:33;;;;;;;8.07;3.05;;;;;;;;;;5026648;28;20095;-68
2021/04/06 11:01:59;;;;;;;6.47;1.75;;;;;;;;;;5032533;28;20481;-69
2021/04/06 11:04:25;;;;;;;8.20;1.30;;;;;;;;;;5032743;28;20025;-69
2021/04/06 11:06:57;;;;;;;5.68;1.60;;;;;;;;;;5028036;28;20017;-69
2021/04/06 11:09:49;;;;;;;6.88;1.92;;;;;;;;;;5031742;28;20013;-68
2021/04/06 11:12:15;;;;;;;8.95;1.83;;;;;;;;;;5021875;28;20111;-68
2021/04/06 11:14:42;;;;;;;11.63;2.60;;;;;;;;;;5032895;28;20036;-68
2021/04/06 11:17:08;;;;;;;18.75;3.20;;;;;;;;;;5031775;28;20025;-67
2021/04/06 11:19:33;;;;;;;6.50;2.63;;;;;;;;;;5031171;28;20028;-67
2021/04/06 11:22:00;;;;;;;9.63;2.67;;;;;;;;;;5027597;28;20029;-68
2021/04/06 11:24:28;;;;;;;5.20;1.95;;;;;;;;;;5031598;28;20025;-67
2021/04/06 11:26:53;;;;;;;3.63;1.50;;;;;;;;;;5030508;28;20023;-67
2021/04/06 11:29:20;;;;;;;9.23;2.45;;;;;;;;;;5032639;28;20377;-67
2021/04/06 11:31:47;;;;;;;7.85;3.03;;;;;;;;;;5032298;28;20025;-68
2021/04/06 11:34:12;;;;;;;6.25;2.08;;;;;;;;;;5030891;28;20026;-67
2021/04/06 11:36:38;;;;;;;14.50;1.58;;;;;;;;;;5032497;28;20477;-67
2021/04/06 11:39:05;;;;;;;9.85;1.55;;;;;;;;;;5031149;28;20399;-68
2021/04/06 11:41:30;;;;;;;6.45;1.55;;;;;;;;;;5031404;28;20442;-66
2021/04/06 11:43:55;;;;;;;6.57;1.77;;;;;;;;;;5031444;28;20017;-67
2021/04/06 11:46:20;;;;;;;4.55;1.98;;;;;;;;;;5030578;28;20032;-68
2021/04/06 11:48:45;;;;;;;5.20;1.73;;;;;;;;;;5031463;28;20367;-68
2021/04/06 11:51:15;;;;;;;5.82;1.80;;;;;;;;;;5004956;28;20038;-68
2021/04/06 11:53:40;;;;;;;5.07;1.90;;;;;;;;;;5013117;28;20084;-68
2021/04/06 11:56:06;;;;;;;19.67;3.47;;;;;;;;;;5021024;28;20477;-68
2021/04/06 11:58:32;;;;;;;6.78;1.73;;;;;;;;;;5029954;28;20032;-68
2021/04/06 12:00:57;;;;;;;8.85;2.25;;;;;;;;;;5025597;28;20104;-68
2021/04/06 12:03:22;;;;;;;6.05;2.30;;;;;;;;;;5017245;28;20492;-68
2021/04/06 12:05:47;;;;;;;8.05;1.45;;;;;;;;;;5032039;28;20025;-68
2021/04/06 12:08:12;;;;;;;2.20;0.73;;;;;;;;;;5031710;28;20030;-69
2021/04/06 12:10:38;;;;;;;2.38;1.23;;;;;;;;;;5031177;28;20013;-68
2021/04/06 12:13:03;;;;;;;2.15;1.25;;;;;;;;;;5031616;28;20044;-68
2021/04/06 12:15:28;;;;;;;2.67;1.30;;;;;;;;;;5031586;28;20030;-69
2021/04/06 12:17:54;;;;;;;5.38;1.40;;;;;;;;;;5031654;28;20021;-67
2021/04/06 12:20:20;;;;;;;1.95;0.82;;;;;;;;;;5031731;28;20013;-67
2021/04/06 12:22:45;;;;;;;5.25;1.55;;;;;;;;;;5012690;28;20057;-67
2021/04/06 12:25:11;;;;;;;5.00;1.08;;;;;;;;;;5023375;28;20108;-68
2021/04/06 12:27:36;;;;;;;7.93;1.75;;;;;;;;;;5031681;28;20029;-69
2021/04/06 12:30:01;;;;;;;3.65;1.55;;;;;;;;;;5031151;28;20120;-68
2021/04/06 12:32:27;;;;;;;5.65;1.65;;;;;;;;;;5027256;28;20033;-68
2021/04/06 12:34:53;;;;;;;2.92;1.40;;;;;;;;;;5023691;28;20025;-67
2021/04/06 12:37:20;;;;;;;7.28;1.58;;;;;;;;;;5031297;28;20075;-68
2021/04/06 12:39:45;;;;;;;5.65;1.15;;;;;;;;;;5030023;28;20079;-68
2021/04/06 12:42:10;;;;;;;7.15;1.52;;;;;;;;;;5030764;28;20470;-68
2021/04/06 12:44:35;;;;;;;8.63;1.52;;;;;;;;;;5030851;28;20022;-69
2021/04/06 12:47:00;;;;;;;5.30;1.58;;;;;;;;;;5030151;28;20032;-69
2021/04/06 12:49:26;;;;;;;5.70;1.58;;;;;;;;;;5030198;28;20547;-69
2021/04/06 12:51:51;;;;;;;5.95;1.55;;;;;;;;;;5030534;28;20080;-68
2021/04/06 12:54:16;;;;;;;5.32;1.95;;;;;;;;;;5030511;28;20086;-68
2021/04/06 12:56:41;;;;;;;9.70;2.28;;;;;;;;;;5029739;28;20021;-68
2021/04/06 12:59:07;;;;;;;10.23;2.00;;;;;;;;;;5028945;28;20109;-69
2021/04/06 13:01:32;;;;;;;8.82;2.28;;;;;;;;;;5038092;28;20134;-68
2021/04/06 13:03:57;;;;;;;3.80;1.92;;;;;;;;;;5042844;28;20386;-67
2021/04/06 13:06:22;;;;;;;6.13;2.30;;;;;;;;;;5026525;28;20018;-68
2021/04/06 13:08:48;;;;;;;6.43;1.95;;;;;;;;;;5030059;28;20128;-68
2021/04/06 13:11:13;;;;;;;4.72;2.28;;;;;;;;;;5025856;28;20025;-68
2021/04/06 13:13:38;;;;;;;9.57;2.25;;;;;;;;;;5030006;28;20461;-67
2021/04/06 13:16:03;;;;;;;11.18;2.38;;;;;;;;;;5023023;28;20036;-68
2021/04/06 13:18:29;;;;;;;15.30;3.05;;;;;;;;;;5029847;28;20079;-68
2021/04/06 13:20:54;;;;;;;11.55;3.97;;;;;;;;;;5030482;28;20048;-67
2021/04/06 13:23:20;;;;;;;14.05;2.85;;;;;;;;;;5030294;28;20029;-68
2021/04/06 13:25:45;;;;;;;8.45;2.72;;;;;;;;;;5025028;28;20021;-67
2021/04/06 13:28:10;;;;;;;8.43;2.83;;;;;;;;;;5029314;28;20322;-68
2021/04/06 13:30:35;;;;;;;3.85;1.65;;;;;;;;;;5028663;28;20028;-68
2021/04/06 13:33:01;;;;;;;7.00;2.03;;;;;;;;;;5026295;28;20049;-67
2021/04/06 13:35:26;;;;;;;9.75;1.30;;;;;;;;;;5028475;28;20021;-67
2021/04/06 13:37:52;;;;;;;6.30;1.13;;;;;;;;;;5029065;28;20040;-67
2021/04/06 13:40:19;;;;;;;4.10;0.90;;;;;;;;;;5030167;28;20441;-67
2021/04/06 13:42:45;;;;;;;4.35;0.80;;;;;;;;;;5029915;28;20021;-67
2021/04/06 13:45:13;;;;;;;4.45;0.85;;;;;;;;;;5023774;28;20564;-67
2021/04/06 13:47:38;;;;;;;6.95;1.75;;;;;;;;;;5029226;28;20014;-68
2021/04/06 13:50:05;;;;;;;8.57;1.58;;;;;;;;;;5028140;28;20013;-66
2021/04/06 13:52:30;;;;;;;5.68;1.48;;;;;;;;;;5029917;28;20060;-67
2021/04/06 13:54:55;;;;;;;7.35;1.58;;;;;;;;;;5029773;28;20029;-67
2021/04/06 13:57:21;;;;;;;3.70;1.17;;;;;;;;;;5029164;28;20055;-67
2021/04/06 13:59:47;;;;;;;6.43;1.17;;;;;;;;;;5028899;28;20060;-67
2021/04/06 14:02:12;;;;;;;8.20;1.38;;;;;;;;;;5037561;23;20319;-87
2021/04/06 14:04:37;;;;;;;9.07;1.80;;;;;;;;;;5014171;28;20516;-87
2021/04/06 14:07:02;;;;;;;6.20;1.30;;;;;;;;;;5033450;28;20047;-87
2021/04/06 14:09:27;;;;;;;6.40;1.30;;;;;;;;;;5021113;28;20088;-88
2021/04/06 14:11:53;;;;;;;7.28;1.83;;;;;;;;;;5033073;28;20029;-89
2021/04/06 14:14:19;;;;;;;4.03;0.80;;;;;;;;;;5006509;28;20494;-87
2021/04/06 14:16:44;;;;;;;5.20;0.88;;;;;;;;;;4995752;28;20021;-87
2021/04/06 14:19:09;;;;;;;4.45;0.52;;;;;;;;;;5030960;28;20032;-87
2021/04/06 14:21:35;;;;;;;4.40;0.95;;;;;;;;;;5014286;28;20022;-86
2021/04/06 14:24:00;;;;;;;3.95;0.85;;;;;;;;;;5015663;28;20497;-87
2021/04/06 14:26:26;;;;;;;2.30;0.80;;;;;;;;;;5016342;28;20010;-86
2021/04/06 14:28:52;;;;;;;5.72;0.88;;;;;;;;;;5032539;28;20460;-86
2021/04/06 14:31:17;;;;;;;4.93;1.05;;;;;;;;;;5031401;28;20021;-87
2021/04/06 14:33:42;;;;;;;8.63;1.63;;;;;;;;;;5014399;28;20025;-87
2021/04/06 14:36:09;;;;;;;6.43;2.35;;;;;;;;;;5014545;28;20075;-88